Time;durP1;ratioP1;P1;durP2;ratioP2;P2;SDS_P1;SDS_P2;PMS_P1;PMS_P2;Temp;Humidity;BMP_temperature;BMP_pressure;BME280_temperature;BME280_humidity;BME280_pressure;Samples;Min_cycle;Max_cycle;Signal;HPM_P1;HPM_P2
2021/08/30 00:01:59;;;;;;;7.03;4.53;;;;;;;;;;5055261;28;20029;-79
2021/08/30 00:04:25;;;;;;;8.23;4.47;;;;;;;;;;5054482;28;20043;-80
2021/08/30 00:06:50;;;;;;;6.87;4.10;;;;;;;;;;5055180;28;20032;-80
2021/08/30 00:09:16;;;;;;;5.20;3.87;;;;;;;;;;5055274;28;20151;-81
2021/08/30 00:11:42;;;;;;;6.27;3.80;;;;;;;;;;5054896;28;20404;-80
2021/08/30 00:14:07;;;;;;;7.50;4.33;;;;;;;;;;5054025;28;20043;-79
2021/08/30 00:16:33;;;;;;;6.20;4.30;;;;;;;;;;5053943;28;20017;-78
2021/08/30 00:18:58;;;;;;;5.93;4.03;;;;;;;;;;5053758;28;20121;-79
2021/08/30 00:21:24;;;;;;;7.30;4.70;;;;;;;;;;5054958;28;20139;-82
2021/08/30 00:23:49;;;;;;;6.13;4.13;;;;;;;;;;5053959;28;20545;-80
2021/08/30 00:26:15;;;;;;;5.50;3.87;;;;;;;;;;5056420;28;20090;-82
2021/08/30 00:28:40;;;;;;;6.17;3.90;;;;;;;;;;5058076;28;20477;-82
2021/08/30 00:31:06;;;;;;;7.80;4.07;;;;;;;;;;5058025;28;20028;-80
2021/08/30 00:33:31;;;;;;;6.90;4.30;;;;;;;;;;5058101;28;20032;-79
2021/08/30 00:35:56;;;;;;;6.80;4.23;;;;;;;;;;5057994;28;20028;-79
2021/08/30 00:38:22;;;;;;;6.37;4.23;;;;;;;;;;5058865;28;20032;-81
2021/08/30 00:40:47;;;;;;;5.23;3.80;;;;;;;;;;5058965;28;20032;-79
2021/08/30 00:43:12;;;;;;;5.90;4.27;;;;;;;;;;5058729;28;20052;-81
2021/08/30 00:45:38;;;;;;;5.63;4.00;;;;;;;;;;5058843;28;20029;-79
2021/08/30 00:48:03;;;;;;;5.60;3.73;;;;;;;;;;5059272;28;20427;-82
2021/08/30 00:50:29;;;;;;;6.43;4.67;;;;;;;;;;5057811;28;20433;-79
2021/08/30 00:52:55;;;;;;;6.27;4.40;;;;;;;;;;5057753;28;20174;-83
2021/08/30 00:55:21;;;;;;;5.70;4.20;;;;;;;;;;5059208;28;20058;-81
2021/08/30 00:57:47;;;;;;;7.83;4.20;;;;;;;;;;5057297;28;20309;-82
2021/08/30 01:00:14;;;;;;;5.65;3.65;;;;;;;;;;5058472;28;20040;-81
2021/08/30 01:02:40;;;;;;;6.68;4.43;;;;;;;;;;5058273;28;20036;-78
2021/08/30 01:05:07;;;;;;;5.38;4.18;;;;;;;;;;5058388;28;20017;-80
2021/08/30 01:08:07;;;;;;;5.78;3.65;;;;;;;;;;5058198;28;20039;-79
2021/08/30 01:10:52;;;;;;;6.80;4.15;;;;;;;;;;5058228;28;20043;-81
2021/08/30 01:13:33;;;;;;;5.35;3.88;;;;;;;;;;5057172;28;20438;-81
2021/08/30 01:16:01;;;;;;;7.18;5.38;;;;;;;;;;5058124;28;20323;-79
2021/08/30 01:18:30;;;;;;;5.97;3.63;;;;;;;;;;5057078;28;20524;-80
2021/08/30 01:21:05;;;;;;;9.88;4.50;;;;;;;;;;5057160;28;20118;-81
2021/08/30 01:23:37;;;;;;;6.80;4.25;;;;;;;;;;5057063;28;20025;-81
2021/08/30 01:26:04;;;;;;;7.18;4.38;;;;;;;;;;5058261;28;20512;-79
2021/08/30 01:28:51;;;;;;;6.18;3.50;;;;;;;;;;5061781;28;20090;-79
2021/08/30 01:31:28;;;;;;;5.82;3.45;;;;;;;;;;5064747;28;20029;-79
2021/08/30 01:33:54;;;;;;;5.68;3.88;;;;;;;;;;5063593;28;20025;-80
2021/08/30 01:36:20;;;;;;;6.43;3.97;;;;;;;;;;5066484;28;20020;-79
2021/08/30 01:38:48;;;;;;;5.10;3.78;;;;;;;;;;5068176;28;20029;-81
2021/08/30 01:41:15;;;;;;;5.40;3.90;;;;;;;;;;5058664;28;20108;-82
2021/08/30 01:43:46;;;;;;;6.70;3.90;;;;;;;;;;5056802;28;20380;-78
2021/08/30 01:46:13;;;;;;;5.03;3.65;;;;;;;;;;5058876;28;20028;-78
2021/08/30 01:48:47;;;;;;;6.40;3.80;;;;;;;;;;5058807;28;20064;-80
2021/08/30 01:51:12;;;;;;;5.07;3.88;;;;;;;;;;5066232;28;20021;-79
2021/08/30 01:53:37;;;;;;;6.20;3.67;;;;;;;;;;5068141;28;20024;-79
2021/08/30 01:56:05;;;;;;;5.77;3.73;;;;;;;;;;5068291;28;20100;-79
2021/08/30 02:00:58;;;;;;;7.60;4.25;;;;;;;;;;5067639;28;20040;-80
2021/08/30 02:03:31;;;;;;;6.70;4.03;;;;;;;;;;5067260;28;20063;-78
2021/08/30 02:06:02;;;;;;;5.70;3.88;;;;;;;;;;5059436;28;20287;-79
2021/08/30 02:08:30;;;;;;;5.40;4.18;;;;;;;;;;5058007;28;20047;-78
2021/08/30 02:10:58;;;;;;;6.43;3.88;;;;;;;;;;5057926;28;20028;-79
2021/08/30 02:13:29;;;;;;;6.13;3.67;;;;;;;;;;5056788;28;20469;-81
2021/08/30 02:15:56;;;;;;;7.32;3.70;;;;;;;;;;5058765;28;20079;-81
2021/08/30 02:18:28;;;;;;;6.15;4.50;;;;;;;;;;5057517;28;20029;-79
2021/08/30 02:21:06;;;;;;;7.75;3.67;;;;;;;;;;5057294;28;20036;-81
2021/08/30 02:23:36;;;;;;;6.78;3.75;;;;;;;;;;5057249;28;20025;-81
2021/08/30 02:26:13;;;;;;;5.25;3.65;;;;;;;;;;5055970;28;20036;-80
2021/08/30 02:28:41;;;;;;;7.25;4.03;;;;;;;;;;5057102;28;20336;-81
2021/08/30 02:31:09;;;;;;;7.75;4.50;;;;;;;;;;5057157;28;20024;-80
2021/08/30 02:33:36;;;;;;;7.72;4.18;;;;;;;;;;5057494;28;20025;-81
2021/08/30 02:36:04;;;;;;;7.88;4.18;;;;;;;;;;5058548;28;20338;-79
2021/08/30 02:38:33;;;;;;;6.82;4.28;;;;;;;;;;5061035;28;20171;-79
2021/08/30 02:41:00;;;;;;;6.47;4.00;;;;;;;;;;5063430;28;20033;-78
2021/08/30 02:43:26;;;;;;;6.38;3.90;;;;;;;;;;5064139;28;20072;-78
2021/08/30 02:45:54;;;;;;;6.50;4.60;;;;;;;;;;5064350;28;20040;-79
2021/08/30 02:48:21;;;;;;;9.13;5.30;;;;;;;;;;5059741;28;20259;-79
2021/08/30 02:50:47;;;;;;;;;;;;;;;;;;5058193;28;20031;-78
2021/08/30 02:53:12;;;;;;;8.37;4.97;;;;;;;;;;5057951;28;19908;-79
2021/08/30 02:55:38;;;;;;;6.97;5.20;;;;;;;;;;5057185;28;20481;-79
2021/08/30 02:58:05;;;;;;;7.33;4.63;;;;;;;;;;5057076;28;20501;-79
2021/08/30 03:00:32;;;;;;;7.95;4.30;;;;;;;;;;5055713;28;20332;-81
2021/08/30 03:02:59;;;;;;;7.55;5.25;;;;;;;;;;5056899;28;20029;-78
2021/08/30 03:05:26;;;;;;;7.38;4.93;;;;;;;;;;5056675;28;20071;-80
2021/08/30 03:07:51;;;;;;;6.97;4.43;;;;;;;;;;5056758;28;20029;-79
2021/08/30 03:10:17;;;;;;;8.80;4.60;;;;;;;;;;5055369;28;20343;-80
2021/08/30 03:12:44;;;;;;;7.03;4.60;;;;;;;;;;5056557;28;20070;-78
2021/08/30 03:15:11;;;;;;;;;;;;;;;;;;5056790;28;20082;-78
2021/08/30 03:17:37;;;;;;;6.50;4.47;;;;;;;;;;5055883;28;20274;-79
2021/08/30 03:20:05;;;;;;;6.73;4.80;;;;;;;;;;5055212;28;20029;-80
2021/08/30 03:22:32;;;;;;;6.30;4.32;;;;;;;;;;5055201;28;20586;-78
2021/08/30 03:25:01;;;;;;;7.25;4.50;;;;;;;;;;5056312;28;20113;-80
2021/08/30 03:27:27;;;;;;;7.80;4.65;;;;;;;;;;5056227;28;20025;-80
2021/08/30 03:29:53;;;;;;;7.13;4.17;;;;;;;;;;5056086;28;20021;-82
2021/08/30 03:32:19;;;;;;;7.00;4.70;;;;;;;;;;5055902;28;20045;-79
2021/08/30 03:34:45;;;;;;;6.97;5.05;;;;;;;;;;5056052;28;20470;-80
2021/08/30 03:37:12;;;;;;;7.97;4.47;;;;;;;;;;5055049;28;20020;-79
2021/08/30 03:39:41;;;;;;;6.10;4.68;;;;;;;;;;5055966;28;20043;-80
2021/08/30 03:42:07;;;;;;;7.25;4.40;;;;;;;;;;5054884;28;20025;-80
2021/08/30 03:44:34;;;;;;;5.87;4.47;;;;;;;;;;5056588;28;20021;-82
2021/08/30 03:46:59;;;;;;;;;;;;;;;;;;5064670;28;20054;-79
2021/08/30 03:49:25;;;;;;;6.43;4.20;;;;;;;;;;5069570;28;19909;-78
2021/08/30 03:51:52;;;;;;;6.03;4.28;;;;;;;;;;5070025;28;20021;-78
2021/08/30 03:54:17;;;;;;;6.32;4.38;;;;;;;;;;5061759;28;20029;-80
2021/08/30 03:56:46;;;;;;;7.27;3.67;;;;;;;;;;5056754;28;20078;-79
2021/08/30 03:59:13;;;;;;;6.88;4.18;;;;;;;;;;5057846;28;20040;-82
2021/08/30 04:01:42;;;;;;;6.10;4.88;;;;;;;;;;5055747;28;20409;-82
2021/08/30 04:04:14;;;;;;;6.78;3.83;;;;;;;;;;5056187;28;20033;-80
2021/08/30 04:06:41;;;;;;;6.53;4.30;;;;;;;;;;5054725;28;20044;-80
2021/08/30 04:09:06;;;;;;;7.75;4.53;;;;;;;;;;5055919;28;20028;-80
2021/08/30 04:11:31;;;;;;;7.23;4.37;;;;;;;;;;5055642;28;20028;-78
2021/08/30 04:13:57;;;;;;;6.33;4.00;;;;;;;;;;5054498;28;20035;-80
2021/08/30 04:16:22;;;;;;;5.80;3.93;;;;;;;;;;5055302;28;20021;-80
2021/08/30 04:18:48;;;;;;;6.37;4.10;;;;;;;;;;5055143;28;20446;-82
2021/08/30 04:21:13;;;;;;;7.13;4.37;;;;;;;;;;5055132;28;20025;-80
2021/08/30 04:23:38;;;;;;;6.30;4.37;;;;;;;;;;5054731;28;20024;-80
2021/08/30 04:26:03;;;;;;;7.63;4.50;;;;;;;;;;5054491;28;20116;-83
2021/08/30 04:28:29;;;;;;;5.90;3.93;;;;;;;;;;5056060;28;20033;-79
2021/08/30 04:30:54;;;;;;;7.97;4.03;;;;;;;;;;5055634;28;20454;-79
2021/08/30 04:33:22;;;;;;;7.57;4.03;;;;;;;;;;5055287;28;20517;-82
2021/08/30 04:35:47;;;;;;;5.72;4.25;;;;;;;;;;5055575;28;20013;-82
2021/08/30 04:38:13;;;;;;;6.87;4.07;;;;;;;;;;5054636;28;20021;-80
2021/08/30 04:40:39;;;;;;;5.10;3.95;;;;;;;;;;5055471;28;20025;-78
2021/08/30 04:43:08;;;;;;;7.25;4.10;;;;;;;;;;5055157;28;20049;-82
2021/08/30 04:45:33;;;;;;;7.60;4.35;;;;;;;;;;5053950;28;20037;-79
2021/08/30 04:47:59;;;;;;;7.93;4.07;;;;;;;;;;5055416;28;20033;-79
2021/08/30 04:50:24;;;;;;;7.53;3.93;;;;;;;;;;5055146;28;20056;-82
2021/08/30 04:52:49;;;;;;;6.07;4.33;;;;;;;;;;5055835;28;20128;-81
2021/08/30 04:55:15;;;;;;;7.17;4.57;;;;;;;;;;5054372;28;20048;-80
2021/08/30 04:57:40;;;;;;;7.23;4.83;;;;;;;;;;5055299;28;20526;-79
2021/08/30 05:00:07;;;;;;;6.67;4.03;;;;;;;;;;5054190;28;20032;-82
2021/08/30 05:02:32;;;;;;;;;;;;;;;;;;5055746;28;20106;-81
2021/08/30 05:04:58;;;;;;;5.40;3.90;;;;;;;;;;5055789;28;19909;-82
2021/08/30 05:07:24;;;;;;;6.10;4.50;;;;;;;;;;5054331;28;20024;-82
2021/08/30 05:09:49;;;;;;;9.47;5.47;;;;;;;;;;5055268;28;20471;-80
2021/08/30 05:12:14;;;;;;;7.27;4.53;;;;;;;;;;5057714;28;20107;-79
2021/08/30 05:14:40;;;;;;;6.23;4.67;;;;;;;;;;5058839;28;20100;-80
2021/08/30 05:17:05;;;;;;;5.93;4.23;;;;;;;;;;5057935;28;20017;-79
2021/08/30 05:19:30;;;;;;;7.57;4.93;;;;;;;;;;5058314;28;20352;-78
2021/08/30 05:21:56;;;;;;;7.83;4.33;;;;;;;;;;5059484;28;20044;-79
2021/08/30 05:24:21;;;;;;;7.40;4.93;;;;;;;;;;5058654;28;20083;-79
2021/08/30 05:26:46;;;;;;;7.13;4.37;;;;;;;;;;5058034;28;20458;-79
2021/08/30 05:29:12;;;;;;;6.40;4.70;;;;;;;;;;5058817;28;20020;-83
2021/08/30 05:31:37;;;;;;;6.73;4.53;;;;;;;;;;5058611;28;20108;-83
2021/08/30 05:34:02;;;;;;;8.33;4.87;;;;;;;;;;5058607;28;20032;-82
2021/08/30 05:36:28;;;;;;;6.43;4.77;;;;;;;;;;5059472;28;20105;-78
2021/08/30 05:38:54;;;;;;;5.93;4.13;;;;;;;;;;5058770;28;20405;-83
2021/08/30 05:41:19;;;;;;;7.53;4.50;;;;;;;;;;5059102;28;20025;-80
2021/08/30 05:43:45;;;;;;;8.77;4.63;;;;;;;;;;5058574;28;20365;-78
2021/08/30 05:46:15;;;;;;;7.27;4.37;;;;;;;;;;5058682;28;20055;-82
2021/08/30 05:48:42;;;;;;;7.75;4.30;;;;;;;;;;5058859;28;20024;-82
2021/08/30 05:51:07;;;;;;;7.85;4.63;;;;;;;;;;5058467;28;20043;-80
2021/08/30 05:53:32;;;;;;;8.17;4.33;;;;;;;;;;5058683;28;20029;-79
2021/08/30 05:55:58;;;;;;;5.30;4.00;;;;;;;;;;5058611;28;20021;-79
2021/08/30 05:58:23;;;;;;;8.23;4.40;;;;;;;;;;5058735;28;20346;-81
2021/08/30 06:00:48;;;;;;;6.83;4.50;;;;;;;;;;5058286;28;20024;-80
2021/08/30 06:03:14;;;;;;;9.17;4.57;;;;;;;;;;5058057;28;20468;-80
2021/08/30 06:05:39;;;;;;;9.60;4.93;;;;;;;;;;5064584;28;20025;-78
2021/08/30 06:08:04;;;;;;;6.77;4.40;;;;;;;;;;5070613;28;20048;-79
2021/08/30 06:10:30;;;;;;;6.07;4.60;;;;;;;;;;5064941;28;20033;-79
2021/08/30 06:12:55;;;;;;;8.17;4.23;;;;;;;;;;5064337;28;20025;-79
2021/08/30 06:15:20;;;;;;;7.00;4.13;;;;;;;;;;5067072;28;20025;-79
2021/08/30 06:17:46;;;;;;;7.20;4.00;;;;;;;;;;5062172;28;20522;-79
2021/08/30 06:20:11;;;;;;;6.73;4.17;;;;;;;;;;5058393;28;20438;-81
2021/08/30 06:22:37;;;;;;;7.20;4.63;;;;;;;;;;5056899;28;20086;-81
2021/08/30 06:25:02;;;;;;;6.67;4.60;;;;;;;;;;5057403;28;20182;-80
2021/08/30 06:27:28;;;;;;;5.67;4.00;;;;;;;;;;5056302;28;20064;-81
2021/08/30 06:29:53;;;;;;;7.03;4.23;;;;;;;;;;5057344;28;20124;-81
2021/08/30 06:32:18;;;;;;;6.33;3.80;;;;;;;;;;5057560;28;20029;-82
2021/08/30 06:34:44;;;;;;;5.40;3.87;;;;;;;;;;5057528;28;20442;-81
2021/08/30 06:37:09;;;;;;;5.87;4.00;;;;;;;;;;5057418;28;20094;-79
2021/08/30 06:39:34;;;;;;;6.80;3.83;;;;;;;;;;5056303;28;20029;-79
2021/08/30 06:42:00;;;;;;;4.80;3.00;;;;;;;;;;5056191;28;20033;-84
2021/08/30 06:44:25;;;;;;;6.60;3.53;;;;;;;;;;5057620;28;20033;-79
2021/08/30 06:46:50;;;;;;;5.83;4.03;;;;;;;;;;5055998;28;20033;-83
2021/08/30 06:49:16;;;;;;;8.00;3.83;;;;;;;;;;5057876;28;20029;-80
2021/08/30 06:51:41;;;;;;;5.80;4.03;;;;;;;;;;5057121;28;20054;-82
2021/08/30 06:54:07;;;;;;;4.93;4.00;;;;;;;;;;5055734;28;20032;-79
2021/08/30 06:56:32;;;;;;;5.33;3.80;;;;;;;;;;5055665;28;20028;-79
2021/08/30 06:58:57;;;;;;;5.37;3.73;;;;;;;;;;5056720;28;20033;-79
2021/08/30 07:01:23;;;;;;;5.57;3.43;;;;;;;;;;5056824;28;20033;-81
2021/08/30 07:03:48;;;;;;;5.90;3.87;;;;;;;;;;5056601;28;20359;-79
2021/08/30 07:06:14;;;;;;;6.43;4.27;;;;;;;;;;5056213;28;20056;-80
2021/08/30 07:08:39;;;;;;;5.20;3.70;;;;;;;;;;5056463;28;20025;-81
2021/08/30 07:11:05;;;;;;;5.73;3.73;;;;;;;;;;5056555;28;20032;-82
2021/08/30 07:13:30;;;;;;;5.80;3.87;;;;;;;;;;5056046;28;20033;-81
2021/08/30 07:15:55;;;;;;;6.13;4.07;;;;;;;;;;5056124;28;20029;-79
2021/08/30 07:18:21;;;;;;;7.77;4.20;;;;;;;;;;5055857;28;20040;-82
2021/08/30 07:20:46;;;;;;;7.30;3.60;;;;;;;;;;5056149;28;20108;-82
2021/08/30 07:23:11;;;;;;;6.23;4.00;;;;;;;;;;5055987;28;20089;-80
2021/08/30 07:25:37;;;;;;;6.60;3.23;;;;;;;;;;5054949;28;20434;-83
2021/08/30 07:28:03;;;;;;;4.77;3.50;;;;;;;;;;5056016;28;20117;-81
2021/08/30 07:30:28;;;;;;;5.20;3.93;;;;;;;;;;5054884;28;20047;-80
2021/08/30 07:32:54;;;;;;;6.63;3.77;;;;;;;;;;5054938;28;20268;-81
2021/08/30 07:35:21;;;;;;;5.40;3.70;;;;;;;;;;5056296;28;20382;-82
2021/08/30 07:37:46;;;;;;;6.53;3.85;;;;;;;;;;5056055;28;20455;-81
2021/08/30 07:40:13;;;;;;;7.17;4.43;;;;;;;;;;5055097;28;20032;-79
2021/08/30 07:42:38;;;;;;;;;;;;;;;;;;5056239;28;20135;-80
2021/08/30 07:45:04;;;;;;;9.90;4.33;;;;;;;;;;5055642;28;19948;-80
2021/08/30 07:47:30;;;;;;;6.10;4.03;;;;;;;;;;5055843;28;20063;-82
2021/08/30 07:49:55;;;;;;;5.97;3.90;;;;;;;;;;5057189;28;20032;-80
2021/08/30 07:52:21;;;;;;;9.37;4.00;;;;;;;;;;5055722;28;20120;-81
2021/08/30 07:54:48;;;;;;;6.23;3.83;;;;;;;;;;5055442;28;20032;-82
2021/08/30 07:57:13;;;;;;;;;;;;;;;;;;5055826;28;20356;-82
2021/08/30 07:59:39;;;;;;;6.43;3.27;;;;;;;;;;5055865;28;19934;-81
2021/08/30 08:02:04;;;;;;;6.60;3.23;;;;;;;;;;5055507;28;20028;-82
2021/08/30 08:04:29;;;;;;;7.57;3.77;;;;;;;;;;5055651;28;20405;-83
2021/08/30 08:06:54;;;;;;;5.47;3.20;;;;;;;;;;5055542;28;20040;-79
2021/08/30 08:09:20;;;;;;;7.70;3.47;;;;;;;;;;5056095;28;20043;-80
2021/08/30 08:11:46;;;;;;;6.23;3.80;;;;;;;;;;5056609;28;20033;-83
2021/08/30 08:14:11;;;;;;;4.43;3.27;;;;;;;;;;5067734;28;20025;-81
2021/08/30 08:16:37;;;;;;;4.90;3.40;;;;;;;;;;5069333;28;20021;-79
2021/08/30 08:19:02;;;;;;;4.37;3.00;;;;;;;;;;5071447;28;20032;-82
2021/08/30 08:21:28;;;;;;;5.07;3.30;;;;;;;;;;5057291;28;20029;-79
2021/08/30 08:23:53;;;;;;;6.73;3.00;;;;;;;;;;5056784;28;20029;-79
2021/08/30 08:26:18;;;;;;;4.20;3.00;;;;;;;;;;5056155;28;20025;-80
2021/08/30 08:28:44;;;;;;;5.90;3.13;;;;;;;;;;5056358;28;20032;-79
2021/08/30 08:31:09;;;;;;;5.67;3.00;;;;;;;;;;5055535;28;20039;-81
2021/08/30 08:33:34;;;;;;;6.87;2.80;;;;;;;;;;5055684;28;20029;-80
2021/08/30 08:36:00;;;;;;;5.37;3.00;;;;;;;;;;5055983;28;20021;-80
2021/08/30 08:38:25;;;;;;;8.47;2.83;;;;;;;;;;5055806;28;20029;-79
2021/08/30 08:40:52;;;;;;;4.60;2.67;;;;;;;;;;5055756;28;20439;-82
2021/08/30 08:43:18;;;;;;;4.65;2.45;;;;;;;;;;5054715;28;20056;-80
2021/08/30 08:45:45;;;;;;;;;;;;;;;;;;5054860;28;20375;-79
2021/08/30 08:48:10;;;;;;;4.13;2.45;;;;;;;;;;5064242;28;19947;-78
2021/08/30 08:50:36;;;;;;;4.17;2.73;;;;;;;;;;5065788;28;20024;-80
2021/08/30 08:53:04;;;;;;;4.47;2.97;;;;;;;;;;5065845;28;20423;-78
2021/08/30 08:55:33;;;;;;;4.28;2.90;;;;;;;;;;5064420;28;20032;-79
2021/08/30 08:58:02;;;;;;;4.43;2.78;;;;;;;;;;5060761;28;20024;-81
2021/08/30 09:00:28;;;;;;;4.18;2.55;;;;;;;;;;5060601;28;20470;-79
2021/08/30 09:02:53;;;;;;;4.03;2.80;;;;;;;;;;5059724;28;20040;-81
2021/08/30 09:05:24;;;;;;;5.77;2.80;;;;;;;;;;5060915;28;20044;-79
2021/08/30 09:07:50;;;;;;;4.88;2.80;;;;;;;;;;5061653;28;20025;-80
2021/08/30 09:10:16;;;;;;;4.32;2.45;;;;;;;;;;5059858;28;20342;-81
2021/08/30 09:12:43;;;;;;;4.00;2.63;;;;;;;;;;5058217;28;20078;-78
2021/08/30 09:15:16;;;;;;;4.25;2.95;;;;;;;;;;5059074;28;20033;-81
2021/08/30 09:17:53;;;;;;;4.65;2.75;;;;;;;;;;5059298;28;20039;-79
2021/08/30 09:20:20;;;;;;;4.00;2.70;;;;;;;;;;5057879;28;20028;-80
2021/08/30 09:22:46;;;;;;;4.55;2.72;;;;;;;;;;5058614;28;20029;-82
2021/08/30 09:25:13;;;;;;;4.30;2.70;;;;;;;;;;5059180;28;20116;-80
2021/08/30 09:27:45;;;;;;;5.38;2.83;;;;;;;;;;5059317;28;20087;-81
2021/08/30 09:30:12;;;;;;;5.35;3.03;;;;;;;;;;5058428;28;20040;-82
2021/08/30 09:32:39;;;;;;;4.65;2.63;;;;;;;;;;5041318;28;20025;-82
2021/08/30 09:35:05;;;;;;;;;;;;;;;;;;5058259;28;20370;-79
2021/08/30 09:37:36;;;;;;;5.93;3.13;;;;;;;;;;5058255;28;19919;-80
2021/08/30 09:40:05;;;;;;;5.40;2.80;;;;;;;;;;5056968;28;20056;-80
2021/08/30 09:42:31;;;;;;;6.00;2.60;;;;;;;;;;5058242;28;20048;-79
2021/08/30 09:45:12;;;;;;;4.53;2.30;;;;;;;;;;5059385;28;20413;-80
2021/08/30 09:47:50;;;;;;;5.40;2.80;;;;;;;;;;5064798;28;20055;-78
2021/08/30 09:50:16;;;;;;;4.75;2.42;;;;;;;;;;5065187;28;20096;-79
2021/08/30 09:52:41;;;;;;;5.68;2.55;;;;;;;;;;5067597;28;20190;-79
2021/08/30 09:55:07;;;;;;;5.63;2.40;;;;;;;;;;5072616;28;20447;-80
2021/08/30 09:57:34;;;;;;;4.27;2.40;;;;;;;;;;5060963;28;20025;-80
2021/08/30 10:00:02;;;;;;;3.00;2.00;;;;;;;;;;5059740;28;20051;-82
2021/08/30 10:02:29;;;;;;;3.72;2.40;;;;;;;;;;5061110;28;20500;-82
2021/08/30 10:04:55;;;;;;;5.38;2.58;;;;;;;;;;5060997;28;20119;-81
2021/08/30 10:07:20;;;;;;;4.60;2.60;;;;;;;;;;5057536;28;20122;-80
2021/08/30 10:09:48;;;;;;;3.90;2.60;;;;;;;;;;5057968;28;20032;-81
2021/08/30 10:12:13;;;;;;;5.25;2.90;;;;;;;;;;5056717;28;20120;-82
2021/08/30 10:14:39;;;;;;;6.10;5.50;;;;;;;;;;5057670;28;20122;-83
2021/08/30 10:17:04;;;;;;;8.97;3.37;;;;;;;;;;5056946;28;20031;-79
2021/08/30 10:19:33;;;;;;;5.43;3.50;;;;;;;;;;5056320;28;20370;-81
2021/08/30 10:22:00;;;;;;;83.30;74.28;;;;;;;;;;5057995;28;20039;-82
2021/08/30 10:24:28;;;;;;;67.57;54.25;;;;;;;;;;5058058;28;20103;-81
2021/08/30 10:27:00;;;;;;;103.28;65.32;;;;;;;;;;5056696;28;20331;-82
2021/08/30 10:29:32;;;;;;;11.40;6.85;;;;;;;;;;5056809;28;20427;-80
2021/08/30 10:31:57;;;;;;;6.20;3.05;;;;;;;;;;5057385;28;20124;-80
2021/08/30 10:34:33;;;;;;;6.40;3.40;;;;;;;;;;5057062;28;20021;-81
2021/08/30 10:37:00;;;;;;;4.00;2.70;;;;;;;;;;5057775;28;20430;-82
2021/08/30 10:39:42;;;;;;;;;;;;;;;;;;5057575;28;20029;-82
2021/08/30 10:42:11;;;;;;;3.75;2.33;;;;;;;;;;5057178;28;19909;-81
2021/08/30 10:44:48;;;;;;;5.68;2.53;;;;;;;;;;5056917;28;20395;-81
2021/08/30 10:47:13;;;;;;;4.22;2.45;;;;;;;;;;5056205;28;20021;-80
2021/08/30 10:49:41;;;;;;;7.67;2.97;;;;;;;;;;5058566;28;20032;-78
2021/08/30 10:52:11;;;;;;;3.58;2.05;;;;;;;;;;5058392;28;20044;-80
2021/08/30 10:54:36;;;;;;;4.20;2.40;;;;;;;;;;5057641;28;20021;-80
2021/08/30 10:57:03;;;;;;;4.53;2.47;;;;;;;;;;5057180;28;20027;-81
2021/08/30 10:59:30;;;;;;;5.55;2.40;;;;;;;;;;5056893;28;20125;-82
2021/08/30 11:02:05;;;;;;;3.42;2.13;;;;;;;;;;5055590;28;20044;-80
2021/08/30 11:04:37;;;;;;;3.20;2.15;;;;;;;;;;5055624;28;20124;-81
2021/08/30 11:07:04;;;;;;;4.72;2.22;;;;;;;;;;5055355;28;20021;-80
2021/08/30 11:09:30;;;;;;;3.28;2.13;;;;;;;;;;5055887;28;20064;-79
2021/08/30 11:12:09;;;;;;;3.50;2.23;;;;;;;;;;5056970;28;20032;-78
2021/08/30 11:14:37;;;;;;;4.35;2.50;;;;;;;;;;5057823;28;20039;-80
2021/08/30 11:17:04;;;;;;;4.65;3.17;;;;;;;;;;5058729;28;20032;-80
2021/08/30 11:19:29;;;;;;;5.05;3.75;;;;;;;;;;5063101;28;20028;-80
2021/08/30 11:21:58;;;;;;;5.73;3.23;;;;;;;;;;5064948;28;20055;-79
2021/08/30 11:24:26;;;;;;;4.47;2.75;;;;;;;;;;5064641;28;20029;-79
2021/08/30 11:26:53;;;;;;;6.47;3.25;;;;;;;;;;5064519;28;20084;-79
2021/08/30 11:29:19;;;;;;;4.82;3.30;;;;;;;;;;5058707;28;20025;-80
2021/08/30 11:31:44;;;;;;;4.60;3.67;;;;;;;;;;5060622;28;20092;-81
2021/08/30 11:34:25;;;;;;;4.23;2.90;;;;;;;;;;5060902;28;20408;-81
2021/08/30 11:36:52;;;;;;;4.63;2.78;;;;;;;;;;5060681;28;20108;-80
2021/08/30 11:39:18;;;;;;;;;;;;;;;;;;5060294;28;20446;-81
2021/08/30 11:41:44;;;;;;;;;;;;;;;;;;5062085;28;19916;-81
2021/08/30 11:44:10;;;;;;;6.10;3.40;;;;;;;;;;5060461;28;19917;-82
2021/08/30 11:46:44;;;;;;;5.72;3.30;;;;;;;;;;5056040;28;20033;-82
2021/08/30 11:49:10;;;;;;;5.75;3.88;;;;;;;;;;5057972;28;20082;-83
2021/08/30 11:51:38;;;;;;;5.10;3.47;;;;;;;;;;5056370;28;20183;-82
2021/08/30 11:54:04;;;;;;;4.57;3.33;;;;;;;;;;5056422;28;20094;-81
2021/08/30 11:56:34;;;;;;;4.65;3.42;;;;;;;;;;5058468;28;20435;-86
2021/08/30 11:59:00;;;;;;;4.72;3.65;;;;;;;;;;5057416;28;20029;-84
2021/08/30 12:01:26;;;;;;;5.68;3.75;;;;;;;;;;5055561;28;20025;-80
2021/08/30 12:03:51;;;;;;;5.28;3.60;;;;;;;;;;5056501;28;20025;-83
2021/08/30 12:06:19;;;;;;;5.18;3.65;;;;;;;;;;5056459;28;20450;-81
2021/08/30 12:08:48;;;;;;;4.75;3.55;;;;;;;;;;5056432;28;20048;-84
2021/08/30 12:11:14;;;;;;;5.22;3.13;;;;;;;;;;5055938;28;20032;-85
2021/08/30 12:16:25;;;;;;;5.68;3.55;;;;;;;;;;5058723;28;20263;-83
2021/08/30 12:18:54;;;;;;;4.45;3.38;;;;;;;;;;5056945;28;20028;-82
2021/08/30 12:21:33;;;;;;;5.03;3.58;;;;;;;;;;5059487;28;20091;-84
2021/08/30 12:23:59;;;;;;;6.15;3.83;;;;;;;;;;5065162;28;20394;-79
2021/08/30 12:26:25;;;;;;;5.73;3.93;;;;;;;;;;5066280;28;20024;-84
2021/08/30 12:28:58;;;;;;;6.57;3.72;;;;;;;;;;5057185;28;20029;-82
2021/08/30 12:31:30;;;;;;;5.38;4.15;;;;;;;;;;5056297;28;20032;-85
2021/08/30 12:34:02;;;;;;;7.55;4.20;;;;;;;;;;5057580;28;20050;-83
2021/08/30 12:36:27;;;;;;;7.20;3.83;;;;;;;;;;5057361;28;20328;-84
2021/08/30 12:38:53;;;;;;;5.67;3.90;;;;;;;;;;5059158;28;20032;-80
2021/08/30 12:41:18;;;;;;;7.10;4.00;;;;;;;;;;5073760;28;20028;-82
2021/08/30 12:43:46;;;;;;;7.70;4.20;;;;;;;;;;5073152;28;20075;-79
2021/08/30 12:46:12;;;;;;;5.70;3.63;;;;;;;;;;5068417;28;20058;-80
2021/08/30 12:48:37;;;;;;;10.33;3.90;;;;;;;;;;5057398;28;20342;-85
2021/08/30 12:51:02;;;;;;;6.57;3.77;;;;;;;;;;5057097;28;20025;-82
2021/08/30 12:53:28;;;;;;;7.23;3.10;;;;;;;;;;5054930;28;20040;-85
2021/08/30 12:55:53;;;;;;;7.83;3.87;;;;;;;;;;5054858;28;20024;-84
2021/08/30 12:58:19;;;;;;;6.85;3.40;;;;;;;;;;5055478;28;20033;-82
2021/08/30 13:00:44;;;;;;;5.23;3.70;;;;;;;;;;5055019;28;20029;-84
2021/08/30 13:03:10;;;;;;;4.97;3.13;;;;;;;;;;5055097;28;20435;-83
2021/08/30 13:05:40;;;;;;;9.60;3.30;;;;;;;;;;5054490;28;20025;-81
2021/08/30 13:08:05;;;;;;;7.97;3.47;;;;;;;;;;5055659;28;20033;-84
2021/08/30 13:10:34;;;;;;;4.85;3.47;;;;;;;;;;5055370;28;20024;-83
2021/08/30 13:12:59;;;;;;;5.25;3.38;;;;;;;;;;5055534;28;20064;-83
2021/08/30 13:15:25;;;;;;;4.40;3.10;;;;;;;;;;5054473;28;20363;-84
2021/08/30 13:17:51;;;;;;;5.53;3.45;;;;;;;;;;5055057;28;20021;-84
2021/08/30 13:20:17;;;;;;;4.63;2.80;;;;;;;;;;5055347;28;20033;-82
2021/08/30 13:22:44;;;;;;;3.50;2.70;;;;;;;;;;5055204;28;20036;-84
2021/08/30 13:25:14;;;;;;;5.32;3.30;;;;;;;;;;5054064;28;20037;-82
2021/08/30 13:27:48;;;;;;;6.65;3.50;;;;;;;;;;5055292;28;20067;-83
2021/08/30 13:30:16;;;;;;;5.53;3.50;;;;;;;;;;5055500;28;20028;-81
2021/08/30 13:32:42;;;;;;;6.28;3.60;;;;;;;;;;5055505;28;20416;-81
2021/08/30 13:35:09;;;;;;;4.25;2.88;;;;;;;;;;5058088;28;20039;-81
2021/08/30 13:37:35;;;;;;;5.60;3.50;;;;;;;;;;5058648;28;20055;-83
2021/08/30 13:40:00;;;;;;;4.10;3.03;;;;;;;;;;5058247;28;20021;-83
2021/08/30 13:42:26;;;;;;;4.77;3.20;;;;;;;;;;5057256;28;20045;-82
2021/08/30 13:44:51;;;;;;;4.37;3.00;;;;;;;;;;5057749;28;20029;-84
2021/08/30 13:47:16;;;;;;;4.83;2.93;;;;;;;;;;5058228;28;20024;-86
2021/08/30 13:49:42;;;;;;;4.40;3.00;;;;;;;;;;5057186;28;20029;-86
2021/08/30 13:52:07;;;;;;;5.37;3.03;;;;;;;;;;5058762;28;20029;-82
2021/08/30 13:54:32;;;;;;;4.77;2.77;;;;;;;;;;5058064;28;20470;-83
2021/08/30 13:56:58;;;;;;;4.57;3.10;;;;;;;;;;5058751;28;20320;-81
2021/08/30 13:59:23;;;;;;;5.83;2.60;;;;;;;;;;5057626;28;20142;-82
2021/08/30 14:01:48;;;;;;;6.20;3.00;;;;;;;;;;5058511;28;20323;-84
2021/08/30 14:04:14;;;;;;;4.10;2.60;;;;;;;;;;5059453;28;20037;-83
2021/08/30 14:06:39;;;;;;;4.37;2.50;;;;;;;;;;5062919;28;20083;-80
2021/08/30 14:09:05;;;;;;;5.30;2.70;;;;;;;;;;5065797;28;20033;-81
2021/08/30 14:11:31;;;;;;;4.55;2.75;;;;;;;;;;5061753;28;20118;-81
2021/08/30 14:13:56;;;;;;;4.13;3.00;;;;;;;;;;5064294;28;20439;-80
2021/08/30 14:16:21;;;;;;;4.60;2.63;;;;;;;;;;5061573;28;20032;-80
2021/08/30 14:18:47;;;;;;;4.87;2.97;;;;;;;;;;5062116;28;20510;-83
2021/08/30 14:21:12;;;;;;;5.00;3.03;;;;;;;;;;5061279;28;20021;-81
2021/08/30 14:23:38;;;;;;;6.27;2.90;;;;;;;;;;5061310;28;20102;-81
2021/08/30 14:26:04;;;;;;;6.43;3.27;;;;;;;;;;5066947;28;20024;-79
2021/08/30 14:28:30;;;;;;;4.93;3.50;;;;;;;;;;5070179;28;20029;-79
2021/08/30 14:30:55;;;;;;;5.20;3.22;;;;;;;;;;5069265;28;20033;-79
2021/08/30 14:33:21;;;;;;;4.53;3.33;;;;;;;;;;5063140;28;20147;-82
2021/08/30 14:35:46;;;;;;;5.53;3.37;;;;;;;;;;5064481;28;20090;-83
2021/08/30 14:38:11;;;;;;;5.27;3.90;;;;;;;;;;5060522;28;20048;-83
2021/08/30 14:40:40;;;;;;;4.33;3.00;;;;;;;;;;5060702;28;20086;-81
2021/08/30 14:43:05;;;;;;;4.13;2.80;;;;;;;;;;5061462;28;20045;-83
2021/08/30 14:45:31;;;;;;;4.47;2.63;;;;;;;;;;5059486;28;20016;-84
2021/08/30 14:47:56;;;;;;;3.63;2.00;;;;;;;;;;5061071;28;20125;-84
2021/08/30 14:50:22;;;;;;;3.37;2.10;;;;;;;;;;5061090;28;20088;-81